Silver Star, Montana
Current Conditions -  °F | °C
As of 9:25 PM on Friday 19 Dec 2014 (Local Time) from KBTM Reporting Station
Overcast Overcast  
Wind Chill: -4°   Ceiling: 6500
Heat Index: -1°   Visibility: 10mi
Dew Point: -2°   Wind: 6mph
Humidity: 92%   Direction: 160°SSE
Pressure: 29.94"   Gusts: NA
Location:  45.69°N, 112.28°W
Report Text: KBTM 200425Z AUTO 16005KT 10SM FEW008 BKN065 OVC100 M01/M02 A2994 RMK AO2 SNE11 P0000 T10111022
Loading
Personal Weather Stations






























Interactive Weather Map New forecast layout! Learn more

10-Day Weather Forecast

Advertisements
Track Severe Weather on mobile